Time;durP1;ratioP1;P1;durP2;ratioP2;P2;SDS_P1;SDS_P2;PMS_P1;PMS_P2;Temp;Humidity;BMP_temperature;BMP_pressure;BME280_temperature;BME280_humidity;BME280_pressure;Samples;Min_cycle;Max_cycle;Signal;HPM_P1;HPM_P2
2020/12/14 00:01:26;;;;;;;8.07;2.67;;;;;;;;;;5092882;28;20257;-65
2020/12/14 00:03:51;;;;;;;8.75;2.90;;;;;;;;;;5092885;28;20012;-69
2020/12/14 00:06:17;;;;;;;10.40;3.17;;;;;;;;;;5092994;28;20020;-65
2020/12/14 00:08:42;;;;;;;8.93;2.63;;;;;;;;;;5093385;28;20261;-67
2020/12/14 00:11:07;;;;;;;6.50;2.28;;;;;;;;;;5093331;28;20063;-66
2020/12/14 00:13:32;;;;;;;7.22;3.10;;;;;;;;;;5092479;28;20078;-68
2020/12/14 00:15:57;;;;;;;8.73;3.23;;;;;;;;;;5092795;28;20061;-66
2020/12/14 00:18:23;;;;;;;6.73;3.13;;;;;;;;;;5092923;28;20621;-65
2020/12/14 00:20:49;;;;;;;8.05;2.92;;;;;;;;;;5091590;28;20396;-67
2020/12/14 00:23:14;;;;;;;7.35;3.08;;;;;;;;;;5092594;28;20023;-64
2020/12/14 00:25:39;;;;;;;11.00;3.10;;;;;;;;;;5092792;28;20016;-69
2020/12/14 00:28:04;;;;;;;8.77;3.00;;;;;;;;;;5092623;28;20282;-64
2020/12/14 00:30:29;;;;;;;6.33;2.90;;;;;;;;;;5092786;28;20265;-66
2020/12/14 00:32:54;;;;;;;6.53;2.70;;;;;;;;;;5091931;28;20579;-70
2020/12/14 00:35:20;;;;;;;7.27;2.80;;;;;;;;;;5092931;28;20368;-65
2020/12/14 00:37:45;;;;;;;6.60;2.90;;;;;;;;;;5093076;28;20274;-65
2020/12/14 00:40:10;;;;;;;8.48;2.85;;;;;;;;;;5093003;28;20442;-69
2020/12/14 00:42:35;;;;;;;7.37;2.80;;;;;;;;;;5092534;28;20031;-69
2020/12/14 00:45:00;;;;;;;9.53;3.00;;;;;;;;;;5092687;28;20242;-65
2020/12/14 00:47:25;;;;;;;8.10;3.03;;;;;;;;;;5092793;28;20310;-68
2020/12/14 00:49:51;;;;;;;9.57;2.73;;;;;;;;;;5092924;28;20024;-66
2020/12/14 00:52:16;;;;;;;8.75;2.85;;;;;;;;;;5092376;28;20266;-68
2020/12/14 00:54:41;;;;;;;7.72;3.00;;;;;;;;;;5093040;28;20020;-65
2020/12/14 00:57:07;;;;;;;11.15;3.25;;;;;;;;;;5092334;28;20035;-66
2020/12/14 00:59:32;;;;;;;8.00;2.83;;;;;;;;;;5092567;28;20023;-64
2020/12/14 01:01:57;;;;;;;7.47;2.53;;;;;;;;;;5092055;28;20418;-63
2020/12/14 01:04:22;;;;;;;7.18;2.72;;;;;;;;;;5092338;28;20246;-67
2020/12/14 01:06:52;;;;;;;5.95;2.67;;;;;;;;;;5092356;28;20032;-65
2020/12/14 01:09:17;;;;;;;7.68;3.20;;;;;;;;;;5092489;28;20027;-66
2020/12/14 01:11:42;;;;;;;6.32;2.80;;;;;;;;;;5092030;28;20028;-66
2020/12/14 01:14:07;;;;;;;10.83;3.00;;;;;;;;;;5092284;28;20354;-68
2020/12/14 01:16:32;;;;;;;6.90;2.77;;;;;;;;;;5092494;28;20250;-66
2020/12/14 01:18:57;;;;;;;6.95;2.50;;;;;;;;;;5091959;28;20767;-66
2020/12/14 01:21:23;;;;;;;8.20;2.90;;;;;;;;;;5092198;28;20023;-67
2020/12/14 01:23:49;;;;;;;7.15;2.75;;;;;;;;;;5092322;28;20766;-67
2020/12/14 01:26:14;;;;;;;6.00;2.58;;;;;;;;;;5091963;28;20028;-66
2020/12/14 01:28:39;;;;;;;7.95;3.00;;;;;;;;;;5092310;28;20031;-68
2020/12/14 01:31:04;;;;;;;5.47;2.40;;;;;;;;;;5092116;28;20020;-67
2020/12/14 01:33:29;;;;;;;7.07;2.57;;;;;;;;;;5091876;28;20402;-63
2020/12/14 01:35:55;;;;;;;8.45;2.90;;;;;;;;;;5091970;28;20255;-67
2020/12/14 01:38:20;;;;;;;3.97;2.20;;;;;;;;;;5091958;28;20428;-66
2020/12/14 01:40:45;;;;;;;8.63;2.77;;;;;;;;;;5092301;28;20016;-63
2020/12/14 01:43:10;;;;;;;8.48;3.13;;;;;;;;;;5091863;28;20247;-65
2020/12/14 01:45:36;;;;;;;9.00;2.72;;;;;;;;;;5094427;28;20016;-67
2020/12/14 01:48:03;;;;;;;7.73;2.87;;;;;;;;;;5095797;28;20028;-67
2020/12/14 01:50:28;;;;;;;5.18;2.42;;;;;;;;;;5095823;28;20600;-67
2020/12/14 01:52:56;;;;;;;9.02;3.20;;;;;;;;;;5095070;28;20027;-67
2020/12/14 01:55:22;;;;;;;8.20;2.88;;;;;;;;;;5095836;28;20123;-63
2020/12/14 01:57:47;;;;;;;8.27;2.80;;;;;;;;;;5095670;28;20171;-66
2020/12/14 02:00:12;;;;;;;6.33;2.67;;;;;;;;;;5095818;28;20016;-66
2020/12/14 02:02:38;;;;;;;6.78;2.63;;;;;;;;;;5095150;28;20247;-68
2020/12/14 02:05:04;;;;;;;8.20;2.70;;;;;;;;;;5095750;28;20021;-68
2020/12/14 02:07:29;;;;;;;9.30;2.92;;;;;;;;;;5095583;28;20035;-67
2020/12/14 02:09:54;;;;;;;6.43;2.60;;;;;;;;;;5095617;28;20404;-65
2020/12/14 02:12:21;;;;;;;8.45;3.08;;;;;;;;;;5095199;28;20039;-66
2020/12/14 02:14:47;;;;;;;8.65;2.40;;;;;;;;;;5095552;28;20024;-67
2020/12/14 02:17:17;;;;;;;6.70;2.70;;;;;;;;;;5093978;28;20047;-67
2020/12/14 02:19:43;;;;;;;5.43;2.47;;;;;;;;;;5095313;28;20030;-68
2020/12/14 02:22:08;;;;;;;8.65;2.72;;;;;;;;;;5094856;28;20496;-66
2020/12/14 02:24:33;;;;;;;7.70;2.63;;;;;;;;;;5095079;28;20048;-66
2020/12/14 02:26:58;;;;;;;8.32;2.53;;;;;;;;;;5095112;28;20091;-65
2020/12/14 02:29:23;;;;;;;6.72;2.63;;;;;;;;;;5095189;28;20021;-67
2020/12/14 02:31:48;;;;;;;6.30;2.33;;;;;;;;;;5094035;28;20028;-65
2020/12/14 02:34:14;;;;;;;6.70;2.63;;;;;;;;;;5095520;28;20353;-69
2020/12/14 02:36:39;;;;;;;7.80;2.50;;;;;;;;;;5094714;28;20250;-68
2020/12/14 02:39:05;;;;;;;5.47;2.50;;;;;;;;;;5094918;28;20730;-62
2020/12/14 02:41:30;;;;;;;7.50;2.67;;;;;;;;;;5094217;28;20057;-74
2020/12/14 02:43:55;;;;;;;7.88;2.72;;;;;;;;;;5094810;28;20016;-69
2020/12/14 02:46:20;;;;;;;5.43;2.28;;;;;;;;;;5094467;28;20016;-73
2020/12/14 02:48:46;;;;;;;4.43;2.57;;;;;;;;;;5094701;28;20024;-73
2020/12/14 02:51:11;;;;;;;7.40;2.83;;;;;;;;;;5094612;28;20254;-74
2020/12/14 02:53:36;;;;;;;7.43;2.80;;;;;;;;;;5094392;28;20461;-72
2020/12/14 02:56:05;;;;;;;7.93;2.92;;;;;;;;;;5093998;28;20265;-71
2020/12/14 02:58:30;;;;;;;4.97;2.38;;;;;;;;;;5094266;28;20081;-69
2020/12/14 03:00:55;;;;;;;9.93;2.60;;;;;;;;;;5094399;28;20020;-70
2020/12/14 03:03:20;;;;;;;9.30;2.80;;;;;;;;;;5092565;28;20242;-70
2020/12/14 03:05:47;;;;;;;7.83;3.00;;;;;;;;;;5094224;28;20064;-71
2020/12/14 03:08:13;;;;;;;6.47;2.55;;;;;;;;;;5094567;28;20743;-67
2020/12/14 03:10:38;;;;;;;11.40;2.60;;;;;;;;;;5094189;28;20020;-70
2020/12/14 03:13:03;;;;;;;7.72;2.72;;;;;;;;;;5093792;28;20318;-70
2020/12/14 03:15:28;;;;;;;6.40;2.75;;;;;;;;;;5093542;28;20043;-69
2020/12/14 03:17:53;;;;;;;7.17;2.50;;;;;;;;;;5093784;28;20023;-70
2020/12/14 03:20:18;;;;;;;7.83;2.67;;;;;;;;;;5093731;28;20345;-69
2020/12/14 03:22:44;;;;;;;4.37;2.10;;;;;;;;;;5093216;28;20261;-72
2020/12/14 03:25:09;;;;;;;7.57;2.58;;;;;;;;;;5093428;28;20246;-71
2020/12/14 03:27:34;;;;;;;6.83;2.50;;;;;;;;;;5093348;28;20020;-71
2020/12/14 03:29:59;;;;;;;8.37;2.77;;;;;;;;;;5093945;28;20788;-71
2020/12/14 03:32:24;;;;;;;7.88;2.35;;;;;;;;;;5093697;28;20246;-72
2020/12/14 03:34:50;;;;;;;9.63;2.50;;;;;;;;;;5093546;28;20024;-72
2020/12/14 03:37:15;;;;;;;7.68;2.70;;;;;;;;;;5093505;28;20471;-72
2020/12/14 03:39:40;;;;;;;6.87;2.60;;;;;;;;;;5094438;28;20446;-72
2020/12/14 03:42:05;;;;;;;7.20;2.42;;;;;;;;;;5093358;28;20246;-69
2020/12/14 03:44:30;;;;;;;6.23;2.60;;;;;;;;;;5093801;28;20020;-70
2020/12/14 03:46:55;;;;;;;8.87;2.73;;;;;;;;;;5093729;28;20289;-72
2020/12/14 03:49:21;;;;;;;6.32;2.30;;;;;;;;;;5093922;28;20255;-72
2020/12/14 03:51:46;;;;;;;8.18;2.50;;;;;;;;;;5093548;28;20020;-70
2020/12/14 03:54:11;;;;;;;6.60;2.28;;;;;;;;;;5093553;28;20462;-69
2020/12/14 03:56:36;;;;;;;6.63;2.70;;;;;;;;;;5094149;28;20016;-69
2020/12/14 03:59:01;;;;;;;5.13;2.20;;;;;;;;;;5094737;28;20262;-71
2020/12/14 04:01:28;;;;;;;8.68;2.83;;;;;;;;;;5094204;28;20682;-69
2020/12/14 04:03:54;;;;;;;8.52;2.67;;;;;;;;;;5093461;28;20023;-70
2020/12/14 04:06:20;;;;;;;6.72;2.83;;;;;;;;;;5093316;28;20032;-70
2020/12/14 04:08:46;;;;;;;5.18;2.17;;;;;;;;;;5092501;28;20051;-72
2020/12/14 04:11:11;;;;;;;9.10;2.75;;;;;;;;;;5093381;28;20458;-71
2020/12/14 04:13:36;;;;;;;4.88;2.38;;;;;;;;;;5093058;28;20020;-71
2020/12/14 04:16:01;;;;;;;5.95;2.38;;;;;;;;;;5093063;28;20103;-69
2020/12/14 04:18:27;;;;;;;5.10;2.15;;;;;;;;;;5093112;28;20019;-70
2020/12/14 04:20:52;;;;;;;6.40;2.20;;;;;;;;;;5093248;28;20028;-69
2020/12/14 04:23:17;;;;;;;7.85;2.30;;;;;;;;;;5092732;28;20739;-69
2020/12/14 04:25:42;;;;;;;7.25;2.50;;;;;;;;;;5084735;28;20025;-73
2020/12/14 04:28:07;;;;;;;7.30;2.80;;;;;;;;;;5072863;28;20048;-75
2020/12/14 04:30:32;;;;;;;8.70;2.90;;;;;;;;;;5078615;28;20490;-76
2020/12/14 04:32:58;;;;;;;7.95;2.58;;;;;;;;;;5072688;28;20287;-74
2020/12/14 04:35:23;;;;;;;5.55;2.40;;;;;;;;;;5072841;28;20099;-74
2020/12/14 04:37:49;;;;;;;9.98;2.97;;;;;;;;;;5072594;28;20023;-71
2020/12/14 04:40:14;;;;;;;7.70;2.40;;;;;;;;;;5072720;28;20017;-71
2020/12/14 04:42:39;;;;;;;7.45;2.45;;;;;;;;;;5072596;28;20016;-71
2020/12/14 04:45:05;;;;;;;6.90;2.50;;;;;;;;;;5072906;28;20449;-74
2020/12/14 04:47:30;;;;;;;7.82;2.35;;;;;;;;;;5072827;28;20033;-68
2020/12/14 04:49:56;;;;;;;8.65;2.75;;;;;;;;;;5072916;28;20067;-68
2020/12/14 04:52:22;;;;;;;8.75;3.05;;;;;;;;;;5072409;28;20052;-70
2020/12/14 04:54:50;;;;;;;8.52;2.20;;;;;;;;;;5072697;28;20028;-70
2020/12/14 04:57:19;;;;;;;5.80;2.25;;;;;;;;;;5072485;28;20024;-67
2020/12/14 04:59:44;;;;;;;6.97;2.40;;;;;;;;;;5071095;28;20016;-66
2020/12/14 05:02:10;;;;;;;6.13;2.42;;;;;;;;;;5072045;28;20023;-69
2020/12/14 05:04:36;;;;;;;9.38;2.67;;;;;;;;;;5071240;28;20031;-67
2020/12/14 05:07:02;;;;;;;7.60;2.67;;;;;;;;;;5072309;28;20029;-71
2020/12/14 05:09:27;;;;;;;6.60;2.55;;;;;;;;;;5072248;28;20386;-67
2020/12/14 05:11:52;;;;;;;7.45;2.60;;;;;;;;;;5072083;28;20335;-67
2020/12/14 05:14:18;;;;;;;7.68;2.28;;;;;;;;;;5072427;28;20379;-66
2020/12/14 05:16:44;;;;;;;6.40;2.40;;;;;;;;;;5072416;28;20023;-66
2020/12/14 05:19:19;;;;;;;8.65;2.88;;;;;;;;;;5072686;28;20012;-69
2020/12/14 05:21:45;;;;;;;8.18;2.75;;;;;;;;;;5075752;28;20028;-73
2020/12/14 05:24:10;;;;;;;7.03;2.85;;;;;;;;;;5075865;28;20016;-70
2020/12/14 05:26:36;;;;;;;7.43;2.80;;;;;;;;;;5075931;28;20090;-68
2020/12/14 05:29:01;;;;;;;6.32;2.45;;;;;;;;;;5075861;28;20259;-66
2020/12/14 05:31:27;;;;;;;8.00;2.38;;;;;;;;;;5075368;28;20161;-67
2020/12/14 05:34:08;;;;;;;11.43;2.50;;;;;;;;;;5074268;28;20421;-69
2020/12/14 05:36:33;;;;;;;5.47;2.58;;;;;;;;;;5075225;28;20036;-68
2020/12/14 05:38:58;;;;;;;7.37;2.80;;;;;;;;;;5075331;28;20405;-71
2020/12/14 05:41:26;;;;;;;10.10;2.80;;;;;;;;;;5075140;28;20270;-71
2020/12/14 05:43:55;;;;;;;6.07;2.45;;;;;;;;;;5075330;28;20250;-67
2020/12/14 05:46:20;;;;;;;12.30;2.75;;;;;;;;;;5075300;28;20032;-67
2020/12/14 05:48:46;;;;;;;6.00;2.40;;;;;;;;;;5075711;28;20454;-72
2020/12/14 05:51:12;;;;;;;6.13;2.27;;;;;;;;;;5075578;28;20270;-71
2020/12/14 05:53:38;;;;;;;5.60;2.60;;;;;;;;;;5075231;28;20255;-71
2020/12/14 05:56:07;;;;;;;8.23;2.60;;;;;;;;;;5075412;28;20025;-68
2020/12/14 05:58:33;;;;;;;5.68;2.35;;;;;;;;;;5075352;28;20047;-68
2020/12/14 06:01:00;;;;;;;5.75;2.50;;;;;;;;;;5075281;28;20370;-70
2020/12/14 06:03:25;;;;;;;9.02;2.83;;;;;;;;;;5074900;28;20019;-71
2020/12/14 06:05:58;;;;;;;7.72;2.50;;;;;;;;;;5075196;28;20013;-66
2020/12/14 06:08:23;;;;;;;6.05;2.28;;;;;;;;;;5075774;28;20339;-70
2020/12/14 06:10:50;;;;;;;5.65;2.35;;;;;;;;;;5075018;28;20066;-68
2020/12/14 06:13:20;;;;;;;6.72;2.25;;;;;;;;;;5074864;28;20056;-69
2020/12/14 06:15:47;;;;;;;7.82;2.20;;;;;;;;;;5075241;28;20107;-71
2020/12/14 06:18:13;;;;;;;6.78;2.70;;;;;;;;;;5075337;28;20504;-72
2020/12/14 06:20:38;;;;;;;9.25;2.60;;;;;;;;;;5075060;28;20032;-69
2020/12/14 06:23:05;;;;;;;6.17;2.50;;;;;;;;;;5074535;28;20088;-70
2020/12/14 06:25:30;;;;;;;5.55;2.15;;;;;;;;;;5074794;28;20716;-71
2020/12/14 06:27:56;;;;;;;5.65;2.05;;;;;;;;;;5074981;28;20031;-68
2020/12/14 06:30:27;;;;;;;4.22;2.00;;;;;;;;;;5074394;28;20040;-70
2020/12/14 06:33:08;;;;;;;7.28;2.38;;;;;;;;;;5073458;28;20158;-69
2020/12/14 06:35:59;;;;;;;6.45;2.38;;;;;;;;;;5074724;28;20020;-72
2020/12/14 06:38:40;;;;;;;5.05;2.17;;;;;;;;;;5058170;28;20047;-68
2020/12/14 06:41:16;;;;;;;5.65;2.17;;;;;;;;;;5074119;28;20066;-66
2020/12/14 06:43:42;;;;;;;6.00;2.22;;;;;;;;;;5073818;28;20094;-67
2020/12/14 06:46:07;;;;;;;5.60;2.40;;;;;;;;;;5074087;28;20460;-66
2020/12/14 06:48:36;;;;;;;4.63;2.10;;;;;;;;;;5074613;28;20053;-67
2020/12/14 06:51:02;;;;;;;6.55;2.50;;;;;;;;;;5086713;28;20020;-69
2020/12/14 06:53:37;;;;;;;6.20;2.22;;;;;;;;;;5077511;28;20077;-68
2020/12/14 06:56:02;;;;;;;4.57;2.22;;;;;;;;;;5053756;28;20025;-66
2020/12/14 06:58:29;;;;;;;6.40;2.70;;;;;;;;;;5070259;28;20046;-68
2020/12/14 07:00:54;;;;;;;6.70;2.20;;;;;;;;;;5075315;28;20017;-69
2020/12/14 07:03:37;;;;;;;6.28;2.50;;;;;;;;;;5074228;28;20036;-66
2020/12/14 07:06:04;;;;;;;8.98;2.50;;;;;;;;;;5073010;28;20355;-68
2020/12/14 07:08:39;;;;;;;6.38;2.15;;;;;;;;;;5073282;28;20028;-69
2020/12/14 07:11:14;;;;;;;6.18;2.22;;;;;;;;;;5072502;28;20107;-66
2020/12/14 07:13:40;;;;;;;7.15;2.75;;;;;;;;;;5071099;28;20081;-67
2020/12/14 07:16:06;;;;;;;6.63;2.20;;;;;;;;;;5071599;28;20474;-66
2020/12/14 07:18:32;;;;;;;5.18;2.10;;;;;;;;;;5072749;28;20033;-66
2020/12/14 07:21:07;;;;;;;7.50;2.38;;;;;;;;;;5072782;28;20017;-66
2020/12/14 07:23:33;;;;;;;6.28;2.00;;;;;;;;;;5073257;28;20471;-70
2020/12/14 07:25:59;;;;;;;6.65;2.00;;;;;;;;;;5073029;28;20017;-67
2020/12/14 07:28:34;;;;;;;6.35;2.30;;;;;;;;;;5072798;28;20050;-67
2020/12/14 07:31:06;;;;;;;7.15;2.17;;;;;;;;;;5073034;28;20027;-67
2020/12/14 07:33:31;;;;;;;7.72;2.42;;;;;;;;;;5063800;28;20118;-68
2020/12/14 07:36:09;;;;;;;5.17;2.47;;;;;;;;;;5083917;28;20020;-67
2020/12/14 07:38:43;;;;;;;6.85;2.38;;;;;;;;;;5074117;28;20277;-64
2020/12/14 07:41:08;;;;;;;6.75;2.42;;;;;;;;;;5080536;28;20392;-63
2020/12/14 07:43:46;;;;;;;8.05;2.30;;;;;;;;;;5080126;28;20092;-63
2020/12/14 07:46:19;;;;;;;4.53;2.00;;;;;;;;;;5071442;28;20024;-67
2020/12/14 07:48:50;;;;;;;5.88;2.38;;;;;;;;;;5087668;28;20418;-66
2020/12/14 07:51:15;;;;;;;6.22;2.60;;;;;;;;;;5072208;28;20016;-68
2020/12/14 07:53:40;;;;;;;4.97;2.10;;;;;;;;;;5072972;28;20393;-65
2020/12/14 07:56:07;;;;;;;4.33;2.20;;;;;;;;;;5071849;28;20048;-64
2020/12/14 07:58:32;;;;;;;5.63;2.22;;;;;;;;;;5073087;28;20684;-64
2020/12/14 08:00:57;;;;;;;6.30;2.50;;;;;;;;;;5072570;28;20059;-70
2020/12/14 08:03:23;;;;;;;5.77;2.67;;;;;;;;;;5072413;28;20257;-67
2020/12/14 08:05:48;;;;;;;7.00;2.47;;;;;;;;;;5072620;28;20255;-69
2020/12/14 08:08:13;;;;;;;5.43;2.40;;;;;;;;;;5072758;28;20055;-66
2020/12/14 08:10:38;;;;;;;4.35;1.90;;;;;;;;;;5073740;28;20048;-68
2020/12/14 08:13:10;;;;;;;6.57;2.47;;;;;;;;;;5068917;28;20020;-64
2020/12/14 08:15:35;;;;;;;6.68;2.35;;;;;;;;;;5066636;28;20024;-67
2020/12/14 08:18:04;;;;;;;8.13;2.75;;;;;;;;;;5066290;28;20530;-65
2020/12/14 08:20:33;;;;;;;6.45;2.53;;;;;;;;;;5072636;28;20025;-67
2020/12/14 08:22:59;;;;;;;7.88;2.55;;;;;;;;;;5065405;28;20099;-65
2020/12/14 08:25:29;;;;;;;5.07;2.30;;;;;;;;;;5064973;28;20117;-68
2020/12/14 08:27:58;;;;;;;4.32;2.25;;;;;;;;;;5080995;28;20020;-67
2020/12/14 08:30:25;;;;;;;5.53;2.33;;;;;;;;;;5079852;28;20020;-67
2020/12/14 08:33:09;;;;;;;6.18;2.30;;;;;;;;;;5091170;28;20056;-66
2020/12/14 08:35:34;;;;;;;6.78;2.47;;;;;;;;;;5081653;28;20473;-69
2020/12/14 08:38:01;;;;;;;6.65;2.53;;;;;;;;;;5091929;28;20176;-68
2020/12/14 08:40:26;;;;;;;6.57;2.42;;;;;;;;;;5092490;28;20020;-66
2020/12/14 08:42:51;;;;;;;6.10;2.45;;;;;;;;;;5092322;28;20031;-69
2020/12/14 08:45:17;;;;;;;5.97;2.60;;;;;;;;;;5092547;28;20024;-69
2020/12/14 08:47:43;;;;;;;7.22;2.50;;;;;;;;;;5092652;28;20265;-65
2020/12/14 08:50:09;;;;;;;4.88;2.40;;;;;;;;;;5092958;28;20112;-71
2020/12/14 08:52:35;;;;;;;6.10;2.40;;;;;;;;;;5094856;28;20047;-68
2020/12/14 08:55:00;;;;;;;5.45;2.67;;;;;;;;;;5095825;28;20020;-65
2020/12/14 08:57:27;;;;;;;7.45;2.85;;;;;;;;;;5100630;28;20020;-67
2020/12/14 09:00:04;;;;;;;4.90;2.55;;;;;;;;;;5097914;28;20462;-68
2020/12/14 09:02:29;;;;;;;4.50;2.28;;;;;;;;;;5095588;28;20367;-66
2020/12/14 09:04:55;;;;;;;9.23;2.65;;;;;;;;;;5094813;28;20085;-67
2020/12/14 09:07:22;;;;;;;4.63;2.20;;;;;;;;;;5095626;28;20537;-64
2020/12/14 09:09:47;;;;;;;4.85;2.55;;;;;;;;;;5096192;28;20133;-65
2020/12/14 09:12:13;;;;;;;5.50;2.67;;;;;;;;;;5094241;28;20024;-66
2020/12/14 09:14:38;;;;;;;6.57;2.53;;;;;;;;;;5079140;28;20642;-65
2020/12/14 09:17:04;;;;;;;7.05;2.78;;;;;;;;;;5081185;28;20024;-66
2020/12/14 09:19:31;;;;;;;5.43;2.28;;;;;;;;;;5091377;28;20035;-69
2020/12/14 09:21:56;;;;;;;5.90;2.40;;;;;;;;;;5078479;28;20023;-67
2020/12/14 09:24:32;;;;;;;3.55;1.98;;;;;;;;;;5087376;28;20024;-67
2020/12/14 09:27:08;;;;;;;5.95;2.40;;;;;;;;;;5085542;28;20058;-66
2020/12/14 09:29:34;;;;;;;3.53;2.20;;;;;;;;;;5077642;28;20023;-68
2020/12/14 09:31:59;;;;;;;4.82;2.50;;;;;;;;;;5089670;28;20012;-67
2020/12/14 09:34:25;;;;;;;5.65;2.47;;;;;;;;;;5082435;28;20035;-67
2020/12/14 09:36:53;;;;;;;4.65;2.70;;;;;;;;;;5082844;28;20024;-66
2020/12/14 09:39:32;;;;;;;10.38;3.25;;;;;;;;;;5090588;28;20027;-70
2020/12/14 09:41:58;;;;;;;8.48;2.92;;;;;;;;;;5066995;28;20398;-69
2020/12/14 09:44:27;;;;;;;7.57;2.90;;;;;;;;;;5074463;28;20071;-70
2020/12/14 09:46:55;;;;;;;15.07;2.95;;;;;;;;;;5074852;28;20119;-70
2020/12/14 09:49:23;;;;;;;5.43;2.80;;;;;;;;;;5075232;28;20066;-68
2020/12/14 09:51:49;;;;;;;6.32;3.00;;;;;;;;;;5074403;28;20033;-68
2020/12/14 09:54:17;;;;;;;5.43;2.78;;;;;;;;;;5075529;28;20025;-69
2020/12/14 09:56:42;;;;;;;6.07;2.88;;;;;;;;;;5075328;28;20082;-70
2020/12/14 09:59:08;;;;;;;5.07;3.00;;;;;;;;;;5074980;28;20033;-67
2020/12/14 10:01:36;;;;;;;6.95;3.35;;;;;;;;;;5073804;28;20031;-69
2020/12/14 10:04:02;;;;;;;6.15;2.80;;;;;;;;;;5073985;28;20024;-68
2020/12/14 10:06:28;;;;;;;7.75;3.15;;;;;;;;;;5074907;28;20385;-70
2020/12/14 10:08:53;;;;;;;7.45;2.53;;;;;;;;;;5074987;28;20424;-70
2020/12/14 10:11:25;;;;;;;5.50;3.08;;;;;;;;;;5074849;28;20021;-67
2020/12/14 10:13:50;;;;;;;9.77;6.25;;;;;;;;;;5075238;28;20120;-67
2020/12/14 10:16:15;;;;;;;7.28;2.97;;;;;;;;;;5074921;28;20052;-67
2020/12/14 10:18:41;;;;;;;5.00;2.50;;;;;;;;;;5074789;28;20040;-67
2020/12/14 10:21:07;;;;;;;6.30;2.33;;;;;;;;;;5074601;28;20016;-71
2020/12/14 10:23:32;;;;;;;3.25;2.25;;;;;;;;;;5074509;28;20024;-70
2020/12/14 10:25:57;;;;;;;3.83;2.30;;;;;;;;;;5074481;28;20023;-67
2020/12/14 10:28:23;;;;;;;3.60;2.13;;;;;;;;;;5074626;28;20025;-68
2020/12/14 10:30:48;;;;;;;5.47;2.50;;;;;;;;;;5072564;28;20099;-67
2020/12/14 10:33:13;;;;;;;7.47;2.83;;;;;;;;;;5054182;28;20186;-70
2020/12/14 10:35:39;;;;;;;4.28;2.40;;;;;;;;;;5054329;28;20035;-67
2020/12/14 10:38:04;;;;;;;7.53;2.80;;;;;;;;;;5054245;28;20029;-73
2020/12/14 10:40:29;;;;;;;5.43;2.30;;;;;;;;;;5054295;28;20053;-66
2020/12/14 10:42:55;;;;;;;5.43;2.27;;;;;;;;;;5070919;28;20346;-69
2020/12/14 10:45:20;;;;;;;6.43;2.38;;;;;;;;;;5074225;28;20259;-70
2020/12/14 10:47:45;;;;;;;6.03;2.00;;;;;;;;;;5074300;28;20078;-68
2020/12/14 10:50:11;;;;;;;5.45;2.15;;;;;;;;;;5074257;28;20095;-67
2020/12/14 10:52:36;;;;;;;7.38;2.45;;;;;;;;;;5073566;28;20449;-68
2020/12/14 10:55:02;;;;;;;5.85;2.33;;;;;;;;;;5073248;28;20026;-64
2020/12/14 10:57:27;;;;;;;7.10;2.13;;;;;;;;;;5073576;28;20025;-67
2020/12/14 10:59:56;;;;;;;6.38;2.30;;;;;;;;;;5074293;28;20096;-66
2020/12/14 11:02:21;;;;;;;6.57;2.17;;;;;;;;;;5053897;28;20021;-65
2020/12/14 11:04:47;;;;;;;7.00;2.47;;;;;;;;;;5053991;28;20021;-63
2020/12/14 11:07:12;;;;;;;6.67;2.30;;;;;;;;;;5054120;28;20039;-69
2020/12/14 11:09:37;;;;;;;8.87;2.43;;;;;;;;;;5052393;28;20720;-64
2020/12/14 11:12:06;;;;;;;6.03;2.30;;;;;;;;;;5052375;28;20304;-67
2020/12/14 11:14:32;;;;;;;5.93;2.17;;;;;;;;;;5053948;28;20263;-67
2020/12/14 11:16:57;;;;;;;5.53;2.03;;;;;;;;;;5062616;28;20024;-68
2020/12/14 11:19:22;;;;;;;6.60;2.30;;;;;;;;;;5070541;28;20028;-69
2020/12/14 11:21:51;;;;;;;7.07;2.50;;;;;;;;;;5073541;28;20017;-65
2020/12/14 11:24:16;;;;;;;5.13;2.30;;;;;;;;;;5053646;28;20017;-67
2020/12/14 11:26:41;;;;;;;5.67;2.40;;;;;;;;;;5059587;28;20371;-70
2020/12/14 11:29:06;;;;;;;6.60;2.40;;;;;;;;;;5070628;28;20312;-68
2020/12/14 11:31:32;;;;;;;6.43;2.30;;;;;;;;;;5060468;28;20025;-66
2020/12/14 11:33:57;;;;;;;5.38;2.17;;;;;;;;;;5062936;28;20020;-67
2020/12/14 11:36:23;;;;;;;4.18;2.13;;;;;;;;;;5063300;28;20023;-68
2020/12/14 11:38:48;;;;;;;3.60;2.05;;;;;;;;;;5059909;28;20415;-64
2020/12/14 11:41:14;;;;;;;7.38;2.63;;;;;;;;;;5064469;28;20024;-70
2020/12/14 11:43:39;;;;;;;4.82;2.20;;;;;;;;;;5067699;28;20025;-70
2020/12/14 11:46:07;;;;;;;2.83;1.93;;;;;;;;;;5074080;28;20376;-67
2020/12/14 11:48:32;;;;;;;4.22;2.30;;;;;;;;;;5068923;28;20317;-70
2020/12/14 11:50:58;;;;;;;6.67;2.33;;;;;;;;;;5068591;28;20465;-68
2020/12/14 11:53:23;;;;;;;9.07;2.85;;;;;;;;;;5081860;28;20258;-68
2020/12/14 11:55:48;;;;;;;6.80;2.78;;;;;;;;;;5080031;28;20020;-70
2020/12/14 11:58:14;;;;;;;8.30;2.43;;;;;;;;;;5080452;28;20107;-71
2020/12/14 12:00:39;;;;;;;5.03;2.28;;;;;;;;;;5070657;28;20750;-68
2020/12/14 12:03:07;;;;;;;5.50;2.50;;;;;;;;;;5071256;28;20013;-70
2020/12/14 12:05:32;;;;;;;5.53;2.15;;;;;;;;;;5063856;28;20251;-70
2020/12/14 12:08:01;;;;;;;4.93;2.00;;;;;;;;;;5056025;28;20051;-69
2020/12/14 12:10:26;;;;;;;5.70;2.13;;;;;;;;;;5059450;28;20023;-68
2020/12/14 12:12:51;;;;;;;3.72;2.05;;;;;;;;;;5052951;28;20017;-69
2020/12/14 12:15:16;;;;;;;6.57;2.00;;;;;;;;;;5055192;28;20060;-68
2020/12/14 12:17:43;;;;;;;5.30;2.33;;;;;;;;;;5073264;28;20044;-69
2020/12/14 12:20:08;;;;;;;4.43;2.15;;;;;;;;;;5073268;28;20281;-69
2020/12/14 12:22:37;;;;;;;4.72;2.30;;;;;;;;;;5073106;28;20418;-70
2020/12/14 12:25:03;;;;;;;4.55;2.15;;;;;;;;;;5073129;28;20017;-70
2020/12/14 12:27:28;;;;;;;7.20;2.30;;;;;;;;;;5073231;28;20108;-70
2020/12/14 12:29:53;;;;;;;5.77;2.60;;;;;;;;;;5072195;28;20052;-68
2020/12/14 12:32:19;;;;;;;3.93;2.30;;;;;;;;;;5071501;28;20531;-70
2020/12/14 12:34:44;;;;;;;6.00;2.50;;;;;;;;;;5071274;28;20258;-71
2020/12/14 12:37:09;;;;;;;6.20;2.58;;;;;;;;;;5071504;28;20016;-71
2020/12/14 12:39:35;;;;;;;4.82;2.30;;;;;;;;;;5072438;28;20028;-69
2020/12/14 12:42:00;;;;;;;5.05;2.20;;;;;;;;;;5071951;28;20040;-70
2020/12/14 12:44:44;;;;;;;4.43;1.92;;;;;;;;;;5072624;28;20020;-73
2020/12/14 12:47:09;;;;;;;3.75;2.20;;;;;;;;;;5072618;28;20068;-71
2020/12/14 12:49:34;;;;;;;6.97;2.30;;;;;;;;;;5072549;28;20055;-68
2020/12/14 12:52:00;;;;;;;4.38;2.03;;;;;;;;;;5072280;28;20031;-70
2020/12/14 12:54:26;;;;;;;3.67;2.00;;;;;;;;;;5072598;28;20351;-71
2020/12/14 12:56:51;;;;;;;5.82;1.90;;;;;;;;;;5069159;28;20036;-68
2020/12/14 12:59:16;;;;;;;4.68;2.15;;;;;;;;;;5072693;28;20155;-70
2020/12/14 13:01:42;;;;;;;4.53;1.98;;;;;;;;;;5064190;28;20020;-68
2020/12/14 13:04:07;;;;;;;3.67;1.83;;;;;;;;;;5060374;28;20530;-69
2020/12/14 13:06:33;;;;;;;6.75;2.08;;;;;;;;;;5052356;28;20475;-67
2020/12/14 13:08:59;;;;;;;3.63;2.17;;;;;;;;;;5052576;28;20029;-67
2020/12/14 13:11:26;;;;;;;4.72;2.10;;;;;;;;;;5060357;28;20500;-67
2020/12/14 13:13:51;;;;;;;3.15;2.00;;;;;;;;;;5072275;28;20017;-71
2020/12/14 13:16:18;;;;;;;3.67;1.80;;;;;;;;;;5071195;28;20056;-69
2020/12/14 13:18:44;;;;;;;5.25;1.90;;;;;;;;;;5071565;28;20070;-69
2020/12/14 13:21:09;;;;;;;3.00;1.77;;;;;;;;;;5071936;28;20021;-69
2020/12/14 13:23:34;;;;;;;5.53;2.17;;;;;;;;;;5071788;28;20020;-71
2020/12/14 13:25:59;;;;;;;4.97;1.93;;;;;;;;;;5072416;28;20708;-69
2020/12/14 13:28:25;;;;;;;3.92;1.92;;;;;;;;;;5071327;28;20289;-66
2020/12/14 13:30:50;;;;;;;5.03;1.73;;;;;;;;;;5072804;28;20033;-70
2020/12/14 13:33:15;;;;;;;5.10;2.27;;;;;;;;;;5071784;28;20294;-68
2020/12/14 13:35:40;;;;;;;3.33;1.73;;;;;;;;;;5072027;28;20266;-67
2020/12/14 13:38:05;;;;;;;4.93;2.03;;;;;;;;;;5071969;28;20275;-67
2020/12/14 13:40:30;;;;;;;6.18;2.13;;;;;;;;;;5072958;28;20024;-68
2020/12/14 13:42:56;;;;;;;5.87;1.80;;;;;;;;;;5075542;28;20067;-67
2020/12/14 13:45:21;;;;;;;5.43;2.13;;;;;;;;;;5075749;28;20257;-69
2020/12/14 13:47:46;;;;;;;2.57;1.83;;;;;;;;;;5075579;28;20263;-72
2020/12/14 13:50:11;;;;;;;6.60;2.40;;;;;;;;;;5075543;28;20338;-69
2020/12/14 13:52:36;;;;;;;7.17;1.70;;;;;;;;;;5075175;28;20048;-68
2020/12/14 13:55:04;;;;;;;5.60;2.13;;;;;;;;;;5075447;28;20255;-66
2020/12/14 13:57:29;;;;;;;5.63;1.90;;;;;;;;;;5074018;28;20255;-69
2020/12/14 13:59:56;;;;;;;3.20;1.75;;;;;;;;;;5075535;28;20430;-67
2020/12/14 14:02:21;;;;;;;3.80;1.98;;;;;;;;;;5075372;28;20016;-71
2020/12/14 14:04:46;;;;;;;4.60;2.13;;;;;;;;;;5075444;28;20380;-69
2020/12/14 14:07:12;;;;;;;5.83;1.87;;;;;;;;;;5075022;28;20263;-70
2020/12/14 14:09:37;;;;;;;6.97;1.93;;;;;;;;;;5075365;28;20255;-65
2020/12/14 14:12:02;;;;;;;3.37;1.63;;;;;;;;;;5074858;28;20736;-68
2020/12/14 14:14:27;;;;;;;3.95;2.10;;;;;;;;;;5075345;28;20271;-65
2020/12/14 14:16:53;;;;;;;3.58;2.22;;;;;;;;;;5075094;28;20027;-63
2020/12/14 14:19:19;;;;;;;5.03;2.10;;;;;;;;;;5075269;28;20025;-65
2020/12/14 14:21:45;;;;;;;5.10;2.20;;;;;;;;;;5074909;28;20373;-64
2020/12/14 14:24:10;;;;;;;15.57;2.10;;;;;;;;;;5075016;28;20024;-66
2020/12/14 14:26:35;;;;;;;3.70;2.08;;;;;;;;;;5074606;28;20103;-69
2020/12/14 14:29:00;;;;;;;3.67;2.00;;;;;;;;;;5074718;28;20024;-71
2020/12/14 14:31:26;;;;;;;4.70;2.38;;;;;;;;;;5075685;28;20306;-68
2020/12/14 14:33:51;;;;;;;7.60;2.65;;;;;;;;;;5075022;28;20028;-71
2020/12/14 14:36:17;;;;;;;3.55;2.00;;;;;;;;;;5074687;28;20029;-70
2020/12/14 14:38:43;;;;;;;4.70;1.90;;;;;;;;;;5074698;28;20390;-69